Time;durP1;ratioP1;P1;durP2;ratioP2;P2;SDS_P1;SDS_P2;PMS_P1;PMS_P2;Temp;Humidity;BMP_temperature;BMP_pressure;BME280_temperature;BME280_humidity;BME280_pressure;Samples;Min_cycle;Max_cycle;Signal;HPM_P1;HPM_P2
2022/03/28 00:02:07;;;;;;;4.97;4.47;;;;;;;6.36;68.44;102113.41;5072959;28;20056;-41
2022/03/28 00:04:33;;;;;;;8.35;5.50;;;;;;;6.33;68.21;102116.34;5074157;28;20441;-41
2022/03/28 00:06:59;;;;;;;10.52;5.38;;;;;;;6.25;68.63;102099.25;5073348;28;20054;-42
2022/03/28 00:09:24;;;;;;;6.75;4.97;;;;;;;6.09;69.81;102087.16;5078207;28;20074;-41
2022/03/28 00:11:51;;;;;;;8.55;6.00;;;;;;;6.10;68.97;102107.50;5080475;28;20495;-42
2022/03/28 00:14:16;;;;;;;8.85;5.32;;;;;;;6.06;69.21;102103.41;5080297;28;20390;-43
2022/03/28 00:16:42;;;;;;;9.65;5.93;;;;;;;6.00;69.33;102102.06;5080343;28;20116;-43
2022/03/28 00:19:08;;;;;;;8.10;5.85;;;;;;;5.88;69.60;102097.69;5080583;28;20031;-44
2022/03/28 00:21:33;;;;;;;11.98;5.22;;;;;;;5.91;70.18;102094.78;5079101;28;20085;-46
2022/03/28 00:23:59;;;;;;;10.90;6.25;;;;;;;5.85;70.47;102086.41;5080393;28;20064;-43
2022/03/28 00:26:25;;;;;;;7.57;5.93;;;;;;;5.84;70.15;102093.56;5079302;28;20032;-41
2022/03/28 00:28:51;;;;;;;8.82;6.20;;;;;;;5.81;69.82;102086.69;5080914;28;20356;-41
2022/03/28 00:31:17;;;;;;;13.40;6.88;;;;;;;5.74;70.43;102079.25;5080215;28;20038;-41
2022/03/28 00:33:43;;;;;;;11.98;6.63;;;;;;;5.75;70.48;102079.16;5080053;28;20032;-41
2022/03/28 00:36:09;;;;;;;11.10;6.20;;;;;;;5.61;70.40;102074.94;5080692;28;20036;-41
2022/03/28 00:38:34;;;;;;;7.82;5.72;;;;;;;5.65;69.91;102074.69;5079930;28;20115;-41
2022/03/28 00:41:00;;;;;;;8.65;5.57;;;;;;;5.61;70.61;102068.75;5078937;28;20392;-40
2022/03/28 00:43:26;;;;;;;8.60;5.20;;;;;;;5.63;70.38;102070.31;5080109;28;20036;-41
2022/03/28 00:45:52;;;;;;;7.43;6.22;;;;;;;5.51;69.75;102049.97;5079771;28;20047;-41
2022/03/28 00:48:18;;;;;;;7.88;5.82;;;;;;;5.56;70.08;102066.44;5079816;28;20028;-41
2022/03/28 00:50:44;;;;;;;10.57;5.63;;;;;;;5.52;70.56;102065.00;5079765;28;20060;-42
2022/03/28 00:53:11;;;;;;;8.35;5.38;;;;;;;5.43;70.07;102055.06;5079779;28;20032;-42
2022/03/28 00:55:37;;;;;;;8.73;5.70;;;;;;;5.39;70.36;102048.28;5080265;28;20455;-41
2022/03/28 00:58:04;;;;;;;10.30;6.35;;;;;;;5.34;70.87;102039.78;5079043;28;20024;-42
2022/03/28 01:00:30;;;;;;;11.57;6.78;;;;;;;5.35;71.39;102047.66;5079698;28;20032;-41
2022/03/28 01:02:57;;;;;;;7.85;6.30;;;;;;;5.20;70.70;102023.09;5080148;28;20107;-42
2022/03/28 01:05:26;;;;;;;13.63;7.57;;;;;;;5.31;70.84;102038.22;5078871;28;20481;-42
2022/03/28 01:07:52;;;;;;;13.98;7.70;;;;;;;5.43;70.66;102049.72;5080061;28;20060;-41
2022/03/28 01:10:18;;;;;;;9.25;6.57;;;;;;;5.34;70.53;102045.97;5079041;28;20021;-41
2022/03/28 01:12:45;;;;;;;14.80;7.60;;;;;;;5.33;70.56;102044.28;5079571;28;20483;-43
2022/03/28 01:15:14;;;;;;;11.98;7.13;;;;;;;5.34;71.10;102039.78;5078600;28;20024;-42
2022/03/28 01:20:31;;;;;;;11.00;6.50;;;;;;;5.18;71.33;102030.34;5090541;28;20385;-43
2022/03/28 01:22:57;;;;;;;9.00;5.57;;;;;;;5.08;70.55;102025.84;5059247;28;20158;-42
2022/03/28 01:25:25;;;;;;;8.15;5.90;;;;;;;5.12;70.96;102036.13;5076229;28;20056;-42
2022/03/28 01:27:52;;;;;;;11.73;6.10;;;;;;;5.03;71.28;102028.84;5075392;28;20380;-42
2022/03/28 01:30:20;;;;;;;11.18;6.10;;;;;;;5.00;71.28;102029.94;5076428;28;20025;-42
2022/03/28 01:32:47;;;;;;;8.52;6.15;;;;;;;4.96;71.30;102009.00;5076548;28;20067;-42
2022/03/28 01:35:24;;;;;;;11.40;6.65;;;;;;;4.81;71.66;102003.91;5076421;28;20028;-43
2022/03/28 01:37:49;;;;;;;8.70;6.18;;;;;;;4.84;71.31;102005.47;5076430;28;20359;-43
2022/03/28 01:40:15;;;;;;;7.68;6.43;;;;;;;4.86;71.60;102000.88;5075224;28;20094;-42
2022/03/28 01:42:41;;;;;;;12.98;7.18;;;;;;;4.80;72.12;102010.19;5076303;28;20031;-42
2022/03/28 01:45:08;;;;;;;10.52;7.30;;;;;;;4.84;72.03;102013.47;5076367;28;20116;-42
2022/03/28 01:47:34;;;;;;;10.98;7.65;;;;;;;4.84;72.66;102010.81;5075050;28;20446;-42
2022/03/28 01:49:59;;;;;;;12.07;8.20;;;;;;;4.92;72.02;101997.75;5076044;28;20060;-43
2022/03/28 01:52:25;;;;;;;10.73;7.28;;;;;;;4.84;71.48;102001.00;5075128;28;20028;-42
2022/03/28 01:54:51;;;;;;;10.15;6.70;;;;;;;4.73;72.46;102010.78;5074850;28;20031;-42
2022/03/28 01:57:17;;;;;;;9.73;7.82;;;;;;;4.72;71.92;102001.97;5074930;28;20032;-41
2022/03/28 01:59:42;;;;;;;11.60;6.78;;;;;;;4.71;71.45;101992.25;5076116;28;20036;-44
2022/03/28 02:02:08;;;;;;;12.30;7.15;;;;;;;4.62;72.28;101996.50;5075713;28;20033;-42
2022/03/28 02:04:34;;;;;;;13.38;7.43;;;;;;;4.59;71.69;102002.03;5074812;28;20068;-42
2022/03/28 02:06:59;;;;;;;15.82;7.63;;;;;;;4.54;72.81;102003.34;5074517;28;20361;-42
2022/03/28 02:09:25;;;;;;;12.57;6.78;;;;;;;4.53;72.70;101996.31;5076010;28;20085;-42
2022/03/28 02:11:51;;;;;;;9.52;7.03;;;;;;;4.51;71.86;102000.91;5075650;28;20040;-44
2022/03/28 02:14:17;;;;;;;9.00;6.00;;;;;;;4.42;72.64;101995.34;5075316;28;20074;-43
2022/03/28 02:16:42;;;;;;;17.30;7.05;;;;;;;4.23;73.14;101966.63;5091121;28;20073;-42
2022/03/28 02:19:08;;;;;;;10.27;7.53;;;;;;;4.20;73.75;101966.84;5075461;28;20480;-41
2022/03/28 02:21:34;;;;;;;8.52;6.32;;;;;;;4.29;72.70;101964.44;5074296;28;20130;-42
2022/03/28 02:24:00;;;;;;;16.67;7.20;;;;;;;4.35;73.16;101982.63;5075220;28;20500;-44
2022/03/28 02:26:26;;;;;;;13.80;7.80;;;;;;;4.40;72.30;101980.44;5075278;28;20040;-44
2022/03/28 02:28:52;;;;;;;10.07;6.35;;;;;;;4.44;71.69;101973.94;5074338;28;20035;-43
2022/03/28 02:31:17;;;;;;;8.57;6.43;;;;;;;4.30;72.48;101967.00;5075116;28;20089;-43
2022/03/28 02:33:44;;;;;;;9.40;6.55;;;;;;;4.22;72.18;101961.41;5074525;28;20071;-42
2022/03/28 02:36:10;;;;;;;11.10;7.15;;;;;;;4.03;73.10;101940.66;5074228;28;20037;-44
2022/03/28 02:38:36;;;;;;;11.77;7.10;;;;;;;4.04;72.48;101953.84;5073958;28;20024;-42
2022/03/28 02:41:02;;;;;;;10.90;6.50;;;;;;;4.07;72.67;101963.41;5075406;28;20056;-46
2022/03/28 02:43:28;;;;;;;15.75;7.40;;;;;;;4.05;73.29;101954.72;5075006;28;20112;-42
2022/03/28 02:45:54;;;;;;;12.80;7.80;;;;;;;3.95;73.41;101959.84;5057060;28;20078;-42
2022/03/28 02:48:20;;;;;;;10.57;6.57;;;;;;;3.97;73.03;101957.06;5075265;28;20036;-44
2022/03/28 02:50:46;;;;;;;9.32;6.80;;;;;;;3.94;73.20;101946.66;5073708;28;20107;-42
2022/03/28 02:53:12;;;;;;;10.10;6.55;;;;;;;3.87;73.03;101931.16;5075360;28;20032;-45
2022/03/28 02:55:38;;;;;;;9.52;6.68;;;;;;;3.86;73.13;101937.47;5074474;28;20051;-42
2022/03/28 02:58:04;;;;;;;10.73;6.40;;;;;;;3.87;73.03;101938.31;5073992;28;20107;-43
2022/03/28 03:00:30;;;;;;;9.73;5.75;;;;;;;3.83;72.64;101942.16;5074392;28;20119;-42
2022/03/28 03:02:56;;;;;;;12.40;6.70;;;;;;;3.77;73.22;101935.47;5074916;28;20029;-42
2022/03/28 03:05:23;;;;;;;8.85;6.15;;;;;;;3.86;72.84;101936.59;5074269;28;20029;-43
2022/03/28 03:07:49;;;;;;;9.85;5.97;;;;;;;3.85;72.76;101932.25;5074937;28;20169;-43
2022/03/28 03:10:15;;;;;;;10.43;6.28;;;;;;;3.82;72.48;101929.81;5074890;28;20032;-45
2022/03/28 03:12:41;;;;;;;8.50;6.70;;;;;;;3.69;72.93;101936.03;5074548;28;20055;-43
2022/03/28 03:15:07;;;;;;;7.53;5.82;;;;;;;3.66;72.76;101922.97;5074251;28;20480;-43
2022/03/28 03:17:35;;;;;;;9.48;6.03;;;;;;;3.47;72.63;101896.94;5073507;28;20017;-42
2022/03/28 03:20:01;;;;;;;9.00;6.10;;;;;;;3.54;73.35;101910.59;5074030;28;20074;-42
2022/03/28 03:22:27;;;;;;;10.30;6.68;;;;;;;3.51;72.85;101902.00;5074605;28;20075;-42
2022/03/28 03:24:52;;;;;;;11.05;7.03;;;;;;;3.53;73.38;101926.63;5072977;28;20040;-42
2022/03/28 03:27:18;;;;;;;9.27;6.38;;;;;;;3.52;73.83;101919.63;5089745;28;20033;-42
2022/03/28 03:29:44;;;;;;;9.30;7.35;;;;;;;3.48;73.45;101921.66;5073691;28;20030;-42
2022/03/28 03:32:10;;;;;;;13.27;8.07;;;;;;;3.49;73.80;101929.53;5074351;28;20040;-43
2022/03/28 03:34:35;;;;;;;9.93;6.78;;;;;;;3.47;73.34;101923.47;5074027;28;20037;-42
2022/03/28 03:37:02;;;;;;;12.75;7.57;;;;;;;3.44;73.87;101918.38;5073738;28;20043;-43
2022/03/28 03:39:28;;;;;;;8.50;6.93;;;;;;;3.42;73.54;101922.13;5074044;28;20465;-42
2022/03/28 03:41:54;;;;;;;7.55;5.88;;;;;;;3.39;73.74;101917.03;5072797;28;20071;-42
2022/03/28 03:44:20;;;;;;;9.80;7.25;;;;;;;3.32;73.71;101907.78;5072841;28;20093;-42
2022/03/28 03:46:47;;;;;;;10.63;6.07;;;;;;;3.27;73.44;101906.31;5074109;28;20150;-42
2022/03/28 03:49:13;;;;;;;11.57;6.35;;;;;;;3.27;73.08;101906.31;5072974;28;20028;-45
2022/03/28 03:51:39;;;;;;;11.68;6.80;;;;;;;3.27;73.96;101913.47;5072371;28;20078;-44
2022/03/28 03:54:05;;;;;;;9.40;6.47;;;;;;;3.26;73.38;101907.28;5089712;28;20465;-43
2022/03/28 03:56:31;;;;;;;9.85;6.80;;;;;;;3.22;74.00;101903.16;5072075;28;20047;-43
2022/03/28 03:58:58;;;;;;;10.77;7.10;;;;;;;3.21;73.81;101908.56;5073878;28;20029;-43
2022/03/28 04:01:26;;;;;;;14.48;8.05;;;;;;;3.18;74.11;101906.16;5073731;28;20111;-44
2022/03/28 04:03:53;;;;;;;10.52;6.88;;;;;;;3.15;74.26;101901.03;5073383;28;20028;-46
2022/03/28 04:06:19;;;;;;;11.88;7.18;;;;;;;3.10;73.97;101898.72;5073676;28;20510;-44
2022/03/28 04:08:45;;;;;;;10.40;6.20;;;;;;;3.02;74.15;101895.75;5073889;28;20024;-45
2022/03/28 04:11:10;;;;;;;14.10;7.18;;;;;;;3.00;74.29;101889.72;5073784;28;20116;-48
2022/03/28 04:13:37;;;;;;;14.57;8.23;;;;;;;3.03;74.29;101902.78;5073657;28;20168;-47
2022/03/28 04:16:03;;;;;;;16.13;7.80;;;;;;;3.00;74.37;101895.88;5089343;28;20484;-49
2022/03/28 04:18:29;;;;;;;12.57;8.32;;;;;;;3.04;74.12;101893.84;5073745;28;20029;-45
2022/03/28 04:20:56;;;;;;;9.02;7.18;;;;;;;2.97;74.05;101896.09;5073976;28;20032;-45
2022/03/28 04:23:24;;;;;;;16.42;8.27;;;;;;;2.98;74.38;101899.59;5074005;28;20031;-43
2022/03/28 04:25:49;;;;;;;11.05;7.55;;;;;;;2.86;74.29;101877.41;5073648;28;20361;-45
2022/03/28 04:28:15;;;;;;;12.07;7.10;;;;;;;2.94;73.87;101893.66;5073728;28;20153;-45
2022/03/28 04:30:41;;;;;;;14.13;7.53;;;;;;;2.93;74.40;101891.94;5073373;28;20035;-45
2022/03/28 04:33:09;;;;;;;14.20;8.45;;;;;;;2.88;74.05;101892.28;5089248;28;20025;-46
2022/03/28 04:35:37;;;;;;;9.95;7.63;;;;;;;2.86;74.41;101906.59;5073431;28;20461;-46
2022/03/28 04:38:06;;;;;;;10.82;7.18;;;;;;;2.88;73.98;101902.06;5073346;28;20032;-43
2022/03/28 04:40:35;;;;;;;13.07;8.98;;;;;;;2.76;74.02;101892.31;5073625;28;20028;-44
2022/03/28 04:43:01;;;;;;;9.98;7.57;;;;;;;2.83;74.13;101899.72;5073637;28;20032;-42
2022/03/28 04:45:28;;;;;;;11.25;6.78;;;;;;;2.72;74.50;101891.66;5073309;28;20078;-43
2022/03/28 04:47:54;;;;;;;12.82;7.22;;;;;;;2.76;74.36;101898.44;5073547;28;20123;-43
2022/03/28 04:50:20;;;;;;;9.73;7.57;;;;;;;2.75;74.47;101893.25;5073043;28;20036;-42
2022/03/28 04:52:46;;;;;;;13.73;7.40;;;;;;;2.72;74.17;101889.84;5073398;28;20032;-43
2022/03/28 04:55:13;;;;;;;10.63;6.82;;;;;;;2.66;73.89;101881.50;5089123;28;20053;-42
2022/03/28 04:57:39;;;;;;;13.25;7.65;;;;;;;2.69;73.74;101895.38;5092783;28;20533;-42
2022/03/28 05:00:07;;;;;;;11.63;7.43;;;;;;;2.67;73.84;101886.66;5077729;28;20090;-44
2022/03/28 05:02:34;;;;;;;8.98;7.18;;;;;;;2.61;74.04;101884.44;5076654;28;20032;-43
2022/03/28 05:05:00;;;;;;;16.63;8.07;;;;;;;2.52;73.93;101874.47;5077017;28;20376;-42
2022/03/28 05:07:27;;;;;;;9.40;7.35;;;;;;;2.51;74.97;101876.28;5092389;28;20028;-43
2022/03/28 05:09:53;;;;;;;10.20;6.70;;;;;;;2.52;74.47;101872.66;5077179;28;20107;-42
2022/03/28 05:12:20;;;;;;;15.18;7.80;;;;;;;2.50;74.54;101865.78;5076256;28;20112;-42
2022/03/28 05:14:46;;;;;;;10.05;7.53;;;;;;;2.48;74.21;101860.59;5076610;28;20028;-41
2022/03/28 05:17:12;;;;;;;11.52;7.57;;;;;;;2.46;74.07;101870.44;5076789;28;20090;-40
2022/03/28 05:19:38;;;;;;;14.25;7.85;;;;;;;2.40;74.73;101862.09;5076662;28;20028;-41
2022/03/28 05:22:04;;;;;;;16.92;7.82;;;;;;;2.43;74.72;101867.16;5076739;28;20031;-41
2022/03/28 05:24:30;;;;;;;11.05;7.10;;;;;;;2.38;74.98;101840.97;5075274;28;20111;-41
2022/03/28 05:26:56;;;;;;;18.55;10.18;;;;;;;2.42;76.05;101852.22;5076523;28;20459;-41
2022/03/28 05:29:24;;;;;;;12.63;8.07;;;;;;;2.38;75.85;101856.88;5075308;28;20032;-41
2022/03/28 05:31:50;;;;;;;14.68;8.90;;;;;;;2.27;75.33;101835.56;5075211;28;20277;-40
2022/03/28 05:34:16;;;;;;;18.52;9.23;;;;;;;2.27;75.57;101825.81;5075061;28;20119;-41
2022/03/28 05:36:43;;;;;;;13.50;8.77;;;;;;;2.32;75.27;101833.44;5076261;28;20052;-42
2022/03/28 05:39:09;;;;;;;11.32;8.32;;;;;;;2.27;75.04;101812.56;5075962;28;20388;-41
2022/03/28 05:41:36;;;;;;;14.80;8.77;;;;;;;2.37;75.41;101825.19;5076111;28;20032;-42
2022/03/28 05:44:01;;;;;;;19.02;9.57;;;;;;;2.35;76.78;101833.22;5091897;28;20028;-40
2022/03/28 05:46:27;;;;;;;15.73;9.40;;;;;;;2.36;75.67;101839.38;5075563;28;20044;-41
2022/03/28 05:48:54;;;;;;;11.23;8.30;;;;;;;2.36;75.32;101829.63;5076174;28;20074;-41
2022/03/28 05:51:20;;;;;;;16.35;9.95;;;;;;;2.32;75.61;101839.59;5076224;28;20040;-43
2022/03/28 05:53:46;;;;;;;10.25;8.48;;;;;;;2.35;75.79;101832.38;5075990;28;20024;-41
2022/03/28 05:56:11;;;;;;;14.43;9.45;;;;;;;2.38;75.30;101843.63;5075892;28;20071;-40
2022/03/28 05:58:37;;;;;;;16.00;9.57;;;;;;;2.40;75.32;101833.75;5074734;28;20418;-43
2022/03/28 06:01:03;;;;;;;14.80;9.82;;;;;;;2.35;75.03;101824.44;5074593;28;20032;-42
2022/03/28 06:03:29;;;;;;;17.33;10.45;;;;;;;2.47;74.80;101842.13;5075014;28;20039;-41
2022/03/28 06:05:56;;;;;;;12.07;8.98;;;;;;;2.41;74.99;101837.25;5075866;28;20029;-43
2022/03/28 06:08:22;;;;;;;13.10;8.20;;;;;;;2.41;75.41;101837.25;5075830;28;20483;-42
2022/03/28 06:10:48;;;;;;;17.88;9.55;;;;;;;2.41;75.21;101838.09;5075574;28;20036;-42
2022/03/28 06:13:16;;;;;;;22.17;11.45;;;;;;;2.43;75.22;101838.00;5075504;28;20073;-41
2022/03/28 06:15:42;;;;;;;17.17;9.80;;;;;;;2.40;74.89;101831.13;5075097;28;20040;-41
2022/03/28 06:18:08;;;;;;;15.65;8.63;;;;;;;2.47;74.86;101834.16;5075771;28;20025;-42
2022/03/28 06:20:34;;;;;;;14.57;8.18;;;;;;;2.46;74.63;101832.50;5091061;28;20055;-42
2022/03/28 06:23:02;;;;;;;14.68;8.48;;;;;;;2.45;74.85;101836.09;5074105;28;20036;-42
2022/03/28 06:25:28;;;;;;;16.83;9.80;;;;;;;2.44;75.17;101834.41;5075772;28;20028;-42
2022/03/28 06:27:54;;;;;;;16.48;9.77;;;;;;;2.52;75.04;101840.00;5075191;28;20357;-42
2022/03/28 06:30:20;;;;;;;14.88;8.90;;;;;;;2.59;74.87;101841.28;5075097;28;20051;-41
2022/03/28 06:32:46;;;;;;;14.68;9.25;;;;;;;2.60;74.79;101832.38;5075488;28;20360;-44
2022/03/28 06:35:12;;;;;;;14.55;9.55;;;;;;;2.57;74.56;101823.78;5057922;28;20040;-41
2022/03/28 06:37:38;;;;;;;18.08;10.57;;;;;;;2.66;75.02;101839.91;5090994;28;20021;-43
2022/03/28 06:40:05;;;;;;;16.30;9.93;;;;;;;2.61;75.08;101823.44;5073990;28;20033;-42
2022/03/28 06:42:32;;;;;;;18.55;10.38;;;;;;;2.62;74.96;101814.56;5075445;28;20032;-44
2022/03/28 06:45:00;;;;;;;16.77;9.80;;;;;;;2.76;74.83;101829.47;5074863;28;20032;-42
2022/03/28 06:47:25;;;;;;;18.20;10.23;;;;;;;2.69;74.83;101804.34;5074756;28;20039;-41
2022/03/28 06:49:51;;;;;;;12.05;8.80;;;;;;;2.85;75.17;101822.69;5074842;28;20107;-42
2022/03/28 06:52:17;;;;;;;14.88;9.35;;;;;;;2.89;74.73;101821.50;5073641;28;20028;-42
2022/03/28 06:54:43;;;;;;;16.52;9.70;;;;;;;2.80;75.16;101793.81;5074425;28;20078;-42
2022/03/28 06:57:09;;;;;;;16.23;9.93;;;;;;;3.01;75.29;101820.63;5074689;28;20028;-42
2022/03/28 06:59:35;;;;;;;17.42;10.82;;;;;;;3.07;75.42;101827.28;5075296;28;20038;-42
2022/03/28 07:02:01;;;;;;;18.45;11.90;;;;;;;3.11;75.39;101826.09;5075190;28;20025;-43
2022/03/28 07:04:26;;;;;;;17.02;10.27;;;;;;;3.09;75.50;101812.09;5072923;28;20047;-42
2022/03/28 07:06:52;;;;;;;17.60;11.63;;;;;;;3.23;75.98;101814.59;5073376;28;20035;-43
2022/03/28 07:09:18;;;;;;;16.13;10.18;;;;;;;3.23;75.42;101806.63;5074560;28;20067;-41
2022/03/28 07:11:45;;;;;;;21.90;12.20;;;;;;;3.37;75.54;101810.06;5073120;28;20029;-41
2022/03/28 07:14:12;;;;;;;19.70;11.45;;;;;;;3.39;75.51;101801.03;5074187;28;20036;-45
2022/03/28 07:16:37;;;;;;;20.58;11.95;;;;;;;3.49;75.99;101807.34;5074341;28;20036;-42
2022/03/28 07:19:04;;;;;;;19.30;12.02;;;;;;;3.58;75.49;101808.47;5073642;28;20029;-42
2022/03/28 07:21:31;;;;;;;17.30;10.98;;;;;;;3.60;75.91;101803.91;5074406;28;20442;-41
2022/03/28 07:23:57;;;;;;;16.25;10.65;;;;;;;3.67;76.38;101801.63;5074340;28;20358;-41
2022/03/28 07:26:23;;;;;;;17.92;12.60;;;;;;;3.68;75.86;101785.56;5073041;28;20086;-43
2022/03/28 07:28:49;;;;;;;19.63;11.98;;;;;;;3.80;76.31;101789.09;5073793;28;20032;-45
2022/03/28 07:31:15;;;;;;;17.35;11.32;;;;;;;3.92;75.89;101794.44;5074376;28;20028;-41
2022/03/28 07:33:41;;;;;;;17.25;9.48;;;;;;;3.90;75.78;101775.97;5074293;28;20373;-41
2022/03/28 07:36:08;;;;;;;25.70;11.38;;;;;;;4.09;75.75;101791.34;5073893;28;20093;-41
2022/03/28 07:38:35;;;;;;;15.90;10.38;;;;;;;4.17;75.88;101788.09;5073913;28;20039;-41
2022/03/28 07:41:02;;;;;;;16.75;10.45;;;;;;;4.20;75.70;101782.53;5072363;28;20039;-41
2022/03/28 07:43:28;;;;;;;17.00;9.93;;;;;;;4.33;76.00;101785.06;5074002;28;20036;-42
2022/03/28 07:45:54;;;;;;;22.08;11.85;;;;;;;4.43;75.59;101783.38;5073781;28;20099;-41
2022/03/28 07:48:22;;;;;;;15.95;10.77;;;;;;;4.53;75.45;101784.38;5072730;28;20032;-41
2022/03/28 07:50:49;;;;;;;17.23;11.10;;;;;;;4.62;75.48;101769.47;5073972;28;20138;-41
2022/03/28 07:53:14;;;;;;;20.52;10.23;;;;;;;4.67;75.47;101769.13;5072739;28;20032;-46
2022/03/28 07:55:41;;;;;;;20.38;12.27;;;;;;;4.80;76.60;101765.34;5072600;28;20051;-41
2022/03/28 07:58:08;;;;;;;20.30;9.90;;;;;;;4.95;75.83;101762.41;5074058;28;20016;-41
2022/03/28 08:00:34;;;;;;;23.17;11.50;;;;;;;5.07;77.31;101768.53;5073895;28;20028;-41
2022/03/28 08:03:00;;;;;;;21.45;10.93;;;;;;;5.16;77.35;101763.31;5073753;28;20048;-42
2022/03/28 08:05:27;;;;;;;22.27;11.20;;;;;;;5.28;78.48;101766.78;5072316;28;20028;-41
2022/03/28 08:07:54;;;;;;;28.05;11.25;;;;;;;5.31;77.75;101753.22;5073920;28;20033;-41
2022/03/28 08:10:21;;;;;;;18.98;9.95;;;;;;;5.50;76.84;101760.53;5073289;28;20032;-41
2022/03/28 08:12:47;;;;;;;21.10;9.15;;;;;;;5.61;77.15;101760.47;5073474;28;20538;-41
2022/03/28 08:15:15;;;;;;;17.27;8.55;;;;;;;5.71;76.97;101765.00;5072410;28;20032;-42
2022/03/28 08:17:41;;;;;;;16.95;8.25;;;;;;;5.80;76.57;101759.75;5073390;28;20043;-41
2022/03/28 08:20:09;;;;;;;21.33;7.95;;;;;;;5.91;76.65;101758.84;5073805;28;20036;-42
2022/03/28 08:22:37;;;;;;;17.30;7.38;;;;;;;6.01;75.87;101758.91;5073477;28;20052;-41
2022/03/28 08:25:03;;;;;;;23.50;8.25;;;;;;;6.12;75.62;101750.00;5089350;28;20479;-41
2022/03/28 08:27:29;;;;;;;20.92;8.63;;;;;;;6.16;75.35;101738.06;5073788;28;20082;-41
2022/03/28 08:29:55;;;;;;;14.40;7.53;;;;;;;6.37;75.26;101746.88;5073792;28;20654;-41
2022/03/28 08:32:21;;;;;;;16.20;7.68;;;;;;;6.42;75.62;101733.13;5077322;28;20078;-41
2022/03/28 08:34:48;;;;;;;17.85;9.27;;;;;;;6.61;75.75;101745.69;5077224;28;20037;-41
2022/03/28 08:37:16;;;;;;;17.90;9.45;;;;;;;6.74;75.77;101743.63;5077444;28;20039;-42
2022/03/28 08:39:44;;;;;;;17.15;9.27;;;;;;;6.85;75.00;101736.47;5076301;28;20357;-44
2022/03/28 08:42:12;;;;;;;14.02;8.55;;;;;;;7.01;74.80;101734.13;5076759;28;20040;-42
2022/03/28 08:44:39;;;;;;;13.75;7.25;;;;;;;7.13;74.73;101727.66;5075824;28;20032;-42
2022/03/28 08:47:05;;;;;;;19.83;8.52;;;;;;;7.11;74.26;101710.94;5077796;28;20039;-44
2022/03/28 08:49:31;;;;;;;21.02;8.85;;;;;;;7.39;73.09;101737.78;5076269;28;20067;-44
2022/03/28 08:51:57;;;;;;;17.83;8.30;;;;;;;7.52;71.85;101732.13;5077673;28;20079;-42
2022/03/28 08:54:23;;;;;;;16.67;7.97;;;;;;;7.63;72.14;101731.13;5077301;28;20028;-45
2022/03/28 08:56:48;;;;;;;14.52;6.20;;;;;;;7.78;71.66;101732.38;5076286;28;20075;-43
2022/03/28 08:59:14;;;;;;;16.77;7.40;;;;;;;7.88;71.00;101727.84;5076092;28;20473;-42
2022/03/28 09:01:44;;;;;;;18.63;8.68;;;;;;;8.10;70.83;101733.88;5076155;28;20123;-45
2022/03/28 09:04:10;;;;;;;14.43;8.65;;;;;;;8.27;70.03;101726.91;5077273;28;20063;-45
2022/03/28 09:06:38;;;;;;;6.97;5.50;;;;;;;8.43;69.04;101732.50;5077323;28;20055;-45
2022/03/28 09:09:16;;;;;;;13.73;7.43;;;;;;;8.54;68.82;101715.38;5092654;28;20465;-44
2022/03/28 09:11:44;;;;;;;24.77;8.10;;;;;;;8.85;68.89;101725.75;5075966;28;20486;-45
2022/03/28 09:14:13;;;;;;;11.70;7.25;;;;;;;9.13;68.93;101726.53;5077196;28;20107;-44
2022/03/28 09:16:39;;;;;;;17.08;7.53;;;;;;;9.27;65.45;101715.28;5075635;28;20047;-43
2022/03/28 09:19:09;;;;;;;10.90;6.22;;;;;;;9.48;64.93;101706.06;5076859;28;20025;-45
2022/03/28 09:21:35;;;;;;;13.55;7.75;;;;;;;9.68;64.45;101707.56;5076830;28;20457;-44
2022/03/28 09:24:07;;;;;;;19.27;7.47;;;;;;;10.02;64.53;101716.66;5092430;28;20032;-45
2022/03/28 09:26:34;;;;;;;12.98;7.60;;;;;;;11.17;62.30;101711.69;5077077;28;20060;-46
2022/03/28 09:29:01;;;;;;;11.85;6.47;;;;;;;12.97;57.52;101719.28;5075001;28;20036;-43
2022/03/28 09:31:30;;;;;;;12.80;5.85;;;;;;;14.38;54.75;101708.06;5076025;28;20033;-44
2022/03/28 09:34:17;;;;;;;7.93;5.32;;;;;;;15.48;51.26;101707.78;5075647;28;20361;-47
2022/03/28 09:37:00;;;;;;;7.15;5.07;;;;;;;16.34;45.74;101700.44;5076452;28;20017;-42
2022/03/28 09:39:28;;;;;;;12.23;5.95;;;;;;;16.91;47.95;101701.09;5077512;28;20063;-42
2022/03/28 09:42:09;;;;;;;9.45;5.25;;;;;;;17.65;45.77;101694.69;5076346;28;20024;-42
2022/03/28 09:44:53;;;;;;;8.20;4.85;;;;;;;18.43;44.82;101687.63;5075114;28;20397;-42
2022/03/28 09:47:21;;;;;;;12.43;6.05;;;;;;;18.97;44.89;101680.03;5075461;28;20461;-40
2022/03/28 09:49:49;;;;;;;8.65;5.85;;;;;;;19.43;42.65;101674.22;5076186;28;20036;-41
2022/03/28 09:52:19;;;;;;;11.02;5.85;;;;;;;19.56;41.84;101675.13;5076358;28;20067;-45
2022/03/28 09:54:50;;;;;;;12.73;5.70;;;;;;;19.53;42.57;101658.19;5075722;28;20033;-47
2022/03/28 09:57:19;;;;;;;10.73;5.90;;;;;;;20.17;38.70;101671.63;5074824;28;20021;-48
2022/03/28 09:59:45;;;;;;;11.88;5.95;;;;;;;20.08;39.66;101665.63;5075656;28;20024;-47
2022/03/28 10:02:16;;;;;;;15.77;6.25;;;;;;;20.69;37.80;101654.81;5074509;28;20055;-47
2022/03/28 10:04:46;;;;;;;10.27;5.82;;;;;;;20.56;38.19;101663.13;5075539;28;20046;-42
2022/03/28 10:07:12;;;;;;;13.05;5.68;;;;;;;21.34;39.75;101662.19;5076797;28;20421;-45
2022/03/28 10:09:40;;;;;;;8.30;5.65;;;;;;;21.89;37.58;101644.59;5076255;28;20131;-42
2022/03/28 10:12:07;;;;;;;12.00;6.32;;;;;;;22.45;35.45;101649.59;5076095;28;20036;-42
2022/03/28 10:14:34;;;;;;;13.30;6.93;;;;;;;22.38;35.45;101647.84;5075889;28;20104;-42
2022/03/28 10:17:03;;;;;;;13.52;6.45;;;;;;;22.30;32.58;101630.97;5075403;28;20027;-46
2022/03/28 10:19:31;;;;;;;12.80;6.07;;;;;;;22.50;33.86;101625.88;5074373;28;20039;-48
2022/03/28 10:21:58;;;;;;;11.15;6.25;;;;;;;23.17;33.08;101616.09;5075615;28;20028;-47
2022/03/28 10:24:29;;;;;;;11.63;6.43;;;;;;;23.10;33.56;101618.19;5073969;28;20081;-46
2022/03/28 10:26:58;;;;;;;10.43;5.93;;;;;;;23.91;33.05;101617.72;5074033;28;20043;-45
2022/03/28 10:29:34;;;;;;;16.00;6.68;;;;;;;23.44;31.10;101615.41;5075141;28;20033;-45
2022/03/28 10:32:06;;;;;;;10.15;6.65;;;;;;;23.28;31.88;101603.38;5073969;28;20037;-48
2022/03/28 10:34:52;;;;;;;10.63;6.85;;;;;;;22.90;30.49;101614.00;5075282;28;20060;-48
2022/03/28 10:37:45;;;;;;;9.63;6.25;;;;;;;22.92;28.81;101611.00;5060897;28;20032;-47
2022/03/28 10:40:23;;;;;;;12.95;6.07;;;;;;;22.72;30.27;101603.28;5076277;28;20094;-43
2022/03/28 10:43:11;;;;;;;13.45;6.13;;;;;;;23.37;30.98;101602.69;5074814;28;20039;-48
2022/03/28 10:45:45;;;;;;;8.45;5.90;;;;;;;24.12;31.28;101597.66;5060308;28;20032;-49
2022/03/28 10:48:12;;;;;;;9.05;6.10;;;;;;;24.14;31.39;101594.66;5074661;28;20548;-48
2022/03/28 10:50:45;;;;;;;9.00;6.53;;;;;;;24.79;29.56;101597.56;5074549;28;20033;-45
2022/03/28 10:53:16;;;;;;;11.00;6.95;;;;;;;24.53;29.65;101595.41;5074122;28;20040;-48
2022/03/28 10:55:47;;;;;;;10.88;6.80;;;;;;;24.48;28.42;101591.72;5073371;28;20047;-42
2022/03/28 10:58:27;;;;;;;12.75;7.68;;;;;;;24.33;28.12;101590.50;5073239;28;20025;-42
2022/03/28 11:01:14;;;;;;;8.77;6.28;;;;;;;24.84;28.05;101594.84;5090404;28;20032;-42
2022/03/28 11:04:01;;;;;;;9.52;6.43;;;;;;;25.07;29.42;101579.91;5073575;28;20051;-42
2022/03/28 11:06:55;;;;;;;6.63;5.68;;;;;;;25.73;25.37;101573.19;5073355;28;20479;-42
2022/03/28 11:09:49;;;;;;;8.38;5.68;;;;;;;25.59;27.60;101581.09;5073706;28;20492;-42
2022/03/28 11:12:18;;;;;;;10.98;5.43;;;;;;;26.33;28.26;101565.41;5073522;28;20029;-44
2022/03/28 11:14:56;;;;;;;9.75;6.50;;;;;;;26.99;25.83;101564.63;5073449;28;20036;-48
2022/03/28 11:17:25;;;;;;;9.32;5.63;;;;;;;27.58;26.14;101547.41;5073475;28;20102;-45
2022/03/28 11:20:01;;;;;;;11.85;6.72;;;;;;;28.18;25.25;101543.81;5073692;28;20040;-44
2022/03/28 11:22:51;;;;;;;14.05;6.30;;;;;;;27.23;23.61;101551.09;5074942;28;20035;-44
2022/03/28 11:25:38;;;;;;;11.65;6.32;;;;;;;26.99;23.96;101548.91;5073811;28;20365;-44
2022/03/28 11:28:26;;;;;;;13.55;6.85;;;;;;;26.09;25.12;101543.88;5059226;28;20024;-43
2022/03/28 11:31:06;;;;;;;8.40;6.05;;;;;;;26.04;27.42;101547.44;5087278;28;20028;-43